sensor_id;sensor_type;location;lat;lon;timestamp;temperature;humidity
11142;DHT22;5625;50.122;19.864;2022-07-22T00:01:48;23.50;88.20
11142;DHT22;5625;50.122;19.864;2022-07-22T00:04:16;23.50;88.30
11142;DHT22;5625;50.122;19.864;2022-07-22T00:06:44;23.50;88.30
11142;DHT22;5625;50.122;19.864;2022-07-22T00:09:12;23.50;88.30
11142;DHT22;5625;50.122;19.864;2022-07-22T00:11:42;23.50;88.50
11142;DHT22;5625;50.122;19.864;2022-07-22T00:14:10;23.50;88.90
11142;DHT22;5625;50.122;19.864;2022-07-22T00:16:39;23.50;89.50
11142;DHT22;5625;50.122;19.864;2022-07-22T00:19:08;23.40;90.20
11142;DHT22;5625;50.122;19.864;2022-07-22T00:21:36;23.20;90.30
11142;DHT22;5625;50.122;19.864;2022-07-22T00:24:05;23.20;90.30
11142;DHT22;5625;50.122;19.864;2022-07-22T00:26:33;23.10;90.30
11142;DHT22;5625;50.122;19.864;2022-07-22T00:29:02;23.10;90.20
11142;DHT22;5625;50.122;19.864;2022-07-22T00:31:31;23.00;90.30
11142;DHT22;5625;50.122;19.864;2022-07-22T00:34:00;23.00;90.30
11142;DHT22;5625;50.122;19.864;2022-07-22T00:36:29;23.00;90.40
11142;DHT22;5625;50.122;19.864;2022-07-22T00:38:57;23.00;90.50
11142;DHT22;5625;50.122;19.864;2022-07-22T00:41:26;22.90;90.60
11142;DHT22;5625;50.122;19.864;2022-07-22T00:43:59;22.90;90.60
11142;DHT22;5625;50.122;19.864;2022-07-22T00:46:30;22.90;90.60
11142;DHT22;5625;50.122;19.864;2022-07-22T00:48:59;23.00;90.70
11142;DHT22;5625;50.122;19.864;2022-07-22T00:51:28;23.00;90.60
11142;DHT22;5625;50.122;19.864;2022-07-22T00:53:58;23.00;90.60
11142;DHT22;5625;50.122;19.864;2022-07-22T00:56:27;23.00;90.60
11142;DHT22;5625;50.122;19.864;2022-07-22T00:58:58;23.00;90.70
11142;DHT22;5625;50.122;19.864;2022-07-22T01:01:29;23.00;90.90
11142;DHT22;5625;50.122;19.864;2022-07-22T01:03:57;23.00;91.00
11142;DHT22;5625;50.122;19.864;2022-07-22T01:06:27;22.90;91.30
11142;DHT22;5625;50.122;19.864;2022-07-22T01:08:56;22.90;91.90
11142;DHT22;5625;50.122;19.864;2022-07-22T01:11:26;22.80;92.60
11142;DHT22;5625;50.122;19.864;2022-07-22T01:13:55;22.70;93.00
11142;DHT22;5625;50.122;19.864;2022-07-22T01:16:24;22.60;93.20
11142;DHT22;5625;50.122;19.864;2022-07-22T01:18:54;22.50;93.10
11142;DHT22;5625;50.122;19.864;2022-07-22T01:21:24;22.50;93.10
11142;DHT22;5625;50.122;19.864;2022-07-22T01:23:53;22.60;93.00
11142;DHT22;5625;50.122;19.864;2022-07-22T01:26:21;22.50;93.10
11142;DHT22;5625;50.122;19.864;2022-07-22T01:28:49;22.50;93.20
11142;DHT22;5625;50.122;19.864;2022-07-22T01:31:18;22.50;93.40
11142;DHT22;5625;50.122;19.864;2022-07-22T01:33:46;22.50;93.50
11142;DHT22;5625;50.122;19.864;2022-07-22T01:36:15;22.40;93.60
11142;DHT22;5625;50.122;19.864;2022-07-22T01:38:44;22.50;93.70
11142;DHT22;5625;50.122;19.864;2022-07-22T01:41:12;22.50;93.90
11142;DHT22;5625;50.122;19.864;2022-07-22T01:43:40;22.40;94.10
11142;DHT22;5625;50.122;19.864;2022-07-22T01:46:09;22.30;94.30
11142;DHT22;5625;50.122;19.864;2022-07-22T01:48:37;22.30;94.50
11142;DHT22;5625;50.122;19.864;2022-07-22T01:51:06;22.30;94.60
11142;DHT22;5625;50.122;19.864;2022-07-22T01:53:34;22.30;94.60
11142;DHT22;5625;50.122;19.864;2022-07-22T01:56:04;22.30;94.70
11142;DHT22;5625;50.122;19.864;2022-07-22T01:58:32;22.30;94.70
11142;DHT22;5625;50.122;19.864;2022-07-22T02:01:06;22.30;94.90
11142;DHT22;5625;50.122;19.864;2022-07-22T02:03:35;22.30;95.00
11142;DHT22;5625;50.122;19.864;2022-07-22T02:06:04;22.30;95.10
11142;DHT22;5625;50.122;19.864;2022-07-22T02:08:32;22.30;95.30
11142;DHT22;5625;50.122;19.864;2022-07-22T02:11:00;22.20;95.90
11142;DHT22;5625;50.122;19.864;2022-07-22T02:13:30;22.10;96.90
11142;DHT22;5625;50.122;19.864;2022-07-22T02:15:58;22.00;97.60
11142;DHT22;5625;50.122;19.864;2022-07-22T02:18:26;22.00;98.30
11142;DHT22;5625;50.122;19.864;2022-07-22T02:20:54;21.90;98.80
11142;DHT22;5625;50.122;19.864;2022-07-22T02:23:22;21.80;99.40
11142;DHT22;5625;50.122;19.864;2022-07-22T02:25:50;21.80;99.90
11142;DHT22;5625;50.122;19.864;2022-07-22T02:28:18;21.80;99.90
11142;DHT22;5625;50.122;19.864;2022-07-22T02:30:48;21.70;99.90
11142;DHT22;5625;50.122;19.864;2022-07-22T02:33:16;21.70;99.90
11142;DHT22;5625;50.122;19.864;2022-07-22T02:35:44;21.60;99.90
11142;DHT22;5625;50.122;19.864;2022-07-22T02:38:12;21.50;99.90
11142;DHT22;5625;50.122;19.864;2022-07-22T02:40:40;21.50;99.90
11142;DHT22;5625;50.122;19.864;2022-07-22T02:43:09;21.50;99.90
11142;DHT22;5625;50.122;19.864;2022-07-22T02:45:37;21.50;99.90
11142;DHT22;5625;50.122;19.864;2022-07-22T02:48:07;21.50;99.90
11142;DHT22;5625;50.122;19.864;2022-07-22T02:50:35;21.50;99.90
11142;DHT22;5625;50.122;19.864;2022-07-22T02:53:04;21.50;99.90
11142;DHT22;5625;50.122;19.864;2022-07-22T02:55:32;21.50;99.90
11142;DHT22;5625;50.122;19.864;2022-07-22T02:58:04;21.40;99.90
11142;DHT22;5625;50.122;19.864;2022-07-22T03:00:32;21.40;99.90
11142;DHT22;5625;50.122;19.864;2022-07-22T03:03:01;21.40;99.90
11142;DHT22;5625;50.122;19.864;2022-07-22T03:05:30;21.30;99.90
11142;DHT22;5625;50.122;19.864;2022-07-22T03:07:58;21.20;99.90
11142;DHT22;5625;50.122;19.864;2022-07-22T03:10:26;21.20;99.90
11142;DHT22;5625;50.122;19.864;2022-07-22T03:12:55;21.20;99.90
11142;DHT22;5625;50.122;19.864;2022-07-22T03:15:23;21.00;99.90
11142;DHT22;5625;50.122;19.864;2022-07-22T03:17:51;21.00;99.90
11142;DHT22;5625;50.122;19.864;2022-07-22T03:20:19;20.90;99.90
11142;DHT22;5625;50.122;19.864;2022-07-22T03:22:49;20.80;99.90
11142;DHT22;5625;50.122;19.864;2022-07-22T03:25:17;20.80;99.90
11142;DHT22;5625;50.122;19.864;2022-07-22T03:27:45;20.80;99.90
11142;DHT22;5625;50.122;19.864;2022-07-22T03:30:13;20.70;99.90
11142;DHT22;5625;50.122;19.864;2022-07-22T03:32:41;20.70;99.90
11142;DHT22;5625;50.122;19.864;2022-07-22T03:35:13;20.70;99.90
11142;DHT22;5625;50.122;19.864;2022-07-22T03:37:42;20.70;99.90
11142;DHT22;5625;50.122;19.864;2022-07-22T03:40:12;20.60;99.90
11142;DHT22;5625;50.122;19.864;2022-07-22T03:42:40;20.60;99.90
11142;DHT22;5625;50.122;19.864;2022-07-22T03:45:13;20.60;99.90
11142;DHT22;5625;50.122;19.864;2022-07-22T03:47:41;20.60;99.90
11142;DHT22;5625;50.122;19.864;2022-07-22T03:50:09;20.50;99.90
11142;DHT22;5625;50.122;19.864;2022-07-22T03:52:37;20.60;99.90
11142;DHT22;5625;50.122;19.864;2022-07-22T03:55:06;20.60;99.90
11142;DHT22;5625;50.122;19.864;2022-07-22T03:57:36;20.60;99.90
11142;DHT22;5625;50.122;19.864;2022-07-22T04:00:05;20.60;99.90
11142;DHT22;5625;50.122;19.864;2022-07-22T04:02:34;20.60;99.90
11142;DHT22;5625;50.122;19.864;2022-07-22T04:05:02;20.60;99.90
11142;DHT22;5625;50.122;19.864;2022-07-22T04:07:30;20.60;99.90
11142;DHT22;5625;50.122;19.864;2022-07-22T04:09:58;20.60;99.90
11142;DHT22;5625;50.122;19.864;2022-07-22T04:12:33;20.60;99.90
11142;DHT22;5625;50.122;19.864;2022-07-22T04:15:04;20.60;99.90
11142;DHT22;5625;50.122;19.864;2022-07-22T04:17:32;20.70;99.90
11142;DHT22;5625;50.122;19.864;2022-07-22T04:20:01;20.70;99.90
11142;DHT22;5625;50.122;19.864;2022-07-22T04:22:29;20.80;99.90
11142;DHT22;5625;50.122;19.864;2022-07-22T04:24:57;20.70;99.90
11142;DHT22;5625;50.122;19.864;2022-07-22T04:27:26;20.80;99.90
11142;DHT22;5625;50.122;19.864;2022-07-22T04:29:54;20.80;99.90
11142;DHT22;5625;50.122;19.864;2022-07-22T04:32:23;20.80;99.90
11142;DHT22;5625;50.122;19.864;2022-07-22T04:34:51;20.90;99.90
11142;DHT22;5625;50.122;19.864;2022-07-22T04:37:19;20.90;99.90
11142;DHT22;5625;50.122;19.864;2022-07-22T04:39:48;20.90;99.90
11142;DHT22;5625;50.122;19.864;2022-07-22T04:42:16;20.90;99.90
11142;DHT22;5625;50.122;19.864;2022-07-22T04:44:44;21.00;99.90
11142;DHT22;5625;50.122;19.864;2022-07-22T04:47:13;21.00;99.90
11142;DHT22;5625;50.122;19.864;2022-07-22T04:49:43;21.00;99.90
11142;DHT22;5625;50.122;19.864;2022-07-22T04:52:11;21.10;99.90
11142;DHT22;5625;50.122;19.864;2022-07-22T04:54:39;21.20;99.90
11142;DHT22;5625;50.122;19.864;2022-07-22T04:57:07;21.30;99.90
11142;DHT22;5625;50.122;19.864;2022-07-22T04:59:36;21.40;99.90
11142;DHT22;5625;50.122;19.864;2022-07-22T05:02:04;21.50;99.90
11142;DHT22;5625;50.122;19.864;2022-07-22T05:04:33;21.50;99.90
11142;DHT22;5625;50.122;19.864;2022-07-22T05:07:02;21.60;99.90
11142;DHT22;5625;50.122;19.864;2022-07-22T05:09:30;21.70;99.90
11142;DHT22;5625;50.122;19.864;2022-07-22T05:11:58;21.80;99.90
11142;DHT22;5625;50.122;19.864;2022-07-22T05:14:27;21.90;99.90
11142;DHT22;5625;50.122;19.864;2022-07-22T05:16:55;22.00;99.90
11142;DHT22;5625;50.122;19.864;2022-07-22T05:19:23;22.10;99.90
11142;DHT22;5625;50.122;19.864;2022-07-22T05:21:51;22.30;99.90
11142;DHT22;5625;50.122;19.864;2022-07-22T05:24:21;22.40;99.90
11142;DHT22;5625;50.122;19.864;2022-07-22T05:26:49;22.60;99.90
11142;DHT22;5625;50.122;19.864;2022-07-22T05:29:17;22.80;99.90
11142;DHT22;5625;50.122;19.864;2022-07-22T05:31:45;23.00;99.90
11142;DHT22;5625;50.122;19.864;2022-07-22T05:34:13;23.20;99.90
11142;DHT22;5625;50.122;19.864;2022-07-22T05:36:41;23.50;99.90
11142;DHT22;5625;50.122;19.864;2022-07-22T05:39:09;23.70;99.90
11142;DHT22;5625;50.122;19.864;2022-07-22T05:41:39;23.80;99.90
11142;DHT22;5625;50.122;19.864;2022-07-22T05:44:07;24.00;99.90
11142;DHT22;5625;50.122;19.864;2022-07-22T05:46:35;24.20;99.90
11142;DHT22;5625;50.122;19.864;2022-07-22T05:49:03;24.30;99.90
11142;DHT22;5625;50.122;19.864;2022-07-22T05:51:32;24.40;99.90
11142;DHT22;5625;50.122;19.864;2022-07-22T05:54:01;24.50;99.90
11142;DHT22;5625;50.122;19.864;2022-07-22T05:56:30;24.50;99.90
11142;DHT22;5625;50.122;19.864;2022-07-22T05:59:00;24.50;99.90
11142;DHT22;5625;50.122;19.864;2022-07-22T06:01:28;24.50;99.90
11142;DHT22;5625;50.122;19.864;2022-07-22T06:03:56;24.60;99.90
11142;DHT22;5625;50.122;19.864;2022-07-22T06:06:24;24.60;99.90
11142;DHT22;5625;50.122;19.864;2022-07-22T06:08:53;24.70;99.90
11142;DHT22;5625;50.122;19.864;2022-07-22T06:11:22;24.80;99.90
11142;DHT22;5625;50.122;19.864;2022-07-22T06:13:50;24.90;99.90
11142;DHT22;5625;50.122;19.864;2022-07-22T06:16:20;24.90;99.90
11142;DHT22;5625;50.122;19.864;2022-07-22T06:18:48;25.00;99.90
11142;DHT22;5625;50.122;19.864;2022-07-22T06:21:16;25.00;99.90
11142;DHT22;5625;50.122;19.864;2022-07-22T06:23:44;25.00;99.90
11142;DHT22;5625;50.122;19.864;2022-07-22T06:26:13;25.00;99.90
11142;DHT22;5625;50.122;19.864;2022-07-22T06:28:41;25.00;99.90
11142;DHT22;5625;50.122;19.864;2022-07-22T06:31:09;25.10;99.90
11142;DHT22;5625;50.122;19.864;2022-07-22T06:33:38;25.30;99.90
11142;DHT22;5625;50.122;19.864;2022-07-22T06:36:07;25.30;99.90
11142;DHT22;5625;50.122;19.864;2022-07-22T06:38:35;25.30;99.90
11142;DHT22;5625;50.122;19.864;2022-07-22T06:41:07;25.50;99.90
11142;DHT22;5625;50.122;19.864;2022-07-22T06:43:36;25.70;99.90
11142;DHT22;5625;50.122;19.864;2022-07-22T06:46:04;25.80;99.90
11142;DHT22;5625;50.122;19.864;2022-07-22T06:48:32;26.10;99.90
11142;DHT22;5625;50.122;19.864;2022-07-22T06:51:03;26.30;99.90
11142;DHT22;5625;50.122;19.864;2022-07-22T06:53:32;26.60;99.90
11142;DHT22;5625;50.122;19.864;2022-07-22T06:56:00;26.90;99.90
11142;DHT22;5625;50.122;19.864;2022-07-22T06:58:33;27.20;99.90
11142;DHT22;5625;50.122;19.864;2022-07-22T07:01:01;27.50;99.90
11142;DHT22;5625;50.122;19.864;2022-07-22T07:03:30;27.80;99.90
11142;DHT22;5625;50.122;19.864;2022-07-22T07:06:03;28.10;99.90
11142;DHT22;5625;50.122;19.864;2022-07-22T07:08:31;28.40;99.90
11142;DHT22;5625;50.122;19.864;2022-07-22T07:10:59;28.70;99.90
11142;DHT22;5625;50.122;19.864;2022-07-22T07:13:28;28.90;99.90
11142;DHT22;5625;50.122;19.864;2022-07-22T07:15:56;29.10;99.90
11142;DHT22;5625;50.122;19.864;2022-07-22T07:18:24;29.00;99.50
11142;DHT22;5625;50.122;19.864;2022-07-22T07:20:52;29.10;99.30
11142;DHT22;5625;50.122;19.864;2022-07-22T07:23:22;29.40;99.10
11142;DHT22;5625;50.122;19.864;2022-07-22T07:25:51;29.80;98.60
11142;DHT22;5625;50.122;19.864;2022-07-22T07:28:20;30.00;98.20
11142;DHT22;5625;50.122;19.864;2022-07-22T07:30:49;30.40;98.00
11142;DHT22;5625;50.122;19.864;2022-07-22T07:33:18;30.70;97.60
11142;DHT22;5625;50.122;19.864;2022-07-22T07:35:46;31.00;97.30
11142;DHT22;5625;50.122;19.864;2022-07-22T07:38:14;31.30;97.00
11142;DHT22;5625;50.122;19.864;2022-07-22T07:40:44;31.40;96.90
11142;DHT22;5625;50.122;19.864;2022-07-22T07:43:12;31.50;96.60
11142;DHT22;5625;50.122;19.864;2022-07-22T07:45:41;31.50;96.50
11142;DHT22;5625;50.122;19.864;2022-07-22T07:48:09;31.50;96.70
11142;DHT22;5625;50.122;19.864;2022-07-22T07:50:38;31.40;96.60
11142;DHT22;5625;50.122;19.864;2022-07-22T07:53:06;31.30;96.80
11142;DHT22;5625;50.122;19.864;2022-07-22T07:55:34;31.30;96.80
11142;DHT22;5625;50.122;19.864;2022-07-22T07:58:06;31.70;96.50
11142;DHT22;5625;50.122;19.864;2022-07-22T08:00:36;32.10;96.20
11142;DHT22;5625;50.122;19.864;2022-07-22T08:03:09;32.30;95.80
11142;DHT22;5625;50.122;19.864;2022-07-22T08:05:38;32.20;95.80
11142;DHT22;5625;50.122;19.864;2022-07-22T08:08:08;32.00;95.80
11142;DHT22;5625;50.122;19.864;2022-07-22T08:10:41;31.80;96.00
11142;DHT22;5625;50.122;19.864;2022-07-22T08:13:26;31.60;96.10
11142;DHT22;5625;50.122;19.864;2022-07-22T08:15:55;31.50;96.20
11142;DHT22;5625;50.122;19.864;2022-07-22T08:18:24;31.30;96.30
11142;DHT22;5625;50.122;19.864;2022-07-22T08:20:56;31.00;96.50
11142;DHT22;5625;50.122;19.864;2022-07-22T08:23:26;31.00;96.70
11142;DHT22;5625;50.122;19.864;2022-07-22T08:25:55;30.90;96.80
11142;DHT22;5625;50.122;19.864;2022-07-22T08:28:24;30.70;96.90
11142;DHT22;5625;50.122;19.864;2022-07-22T08:30:52;30.60;97.00
11142;DHT22;5625;50.122;19.864;2022-07-22T08:33:21;30.50;97.20
11142;DHT22;5625;50.122;19.864;2022-07-22T08:35:49;30.50;97.30
11142;DHT22;5625;50.122;19.864;2022-07-22T08:38:17;30.40;97.30
11142;DHT22;5625;50.122;19.864;2022-07-22T08:40:45;30.40;97.30
11142;DHT22;5625;50.122;19.864;2022-07-22T08:43:13;30.60;97.20
11142;DHT22;5625;50.122;19.864;2022-07-22T08:45:43;30.70;97.10
11142;DHT22;5625;50.122;19.864;2022-07-22T08:48:11;31.10;97.00
11142;DHT22;5625;50.122;19.864;2022-07-22T08:50:40;31.40;96.90
11142;DHT22;5625;50.122;19.864;2022-07-22T08:53:10;31.80;96.60
11142;DHT22;5625;50.122;19.864;2022-07-22T08:55:42;32.30;96.20
11142;DHT22;5625;50.122;19.864;2022-07-22T08:58:12;32.60;95.70
11142;DHT22;5625;50.122;19.864;2022-07-22T09:00:43;32.90;95.20
11142;DHT22;5625;50.122;19.864;2022-07-22T09:03:21;33.00;95.10
11142;DHT22;5625;50.122;19.864;2022-07-22T09:05:50;33.10;95.00
11142;DHT22;5625;50.122;19.864;2022-07-22T09:08:19;33.00;95.00
11142;DHT22;5625;50.122;19.864;2022-07-22T09:10:48;32.80;95.00
11142;DHT22;5625;50.122;19.864;2022-07-22T09:13:16;32.80;94.90
11142;DHT22;5625;50.122;19.864;2022-07-22T09:15:51;33.30;94.70
11142;DHT22;5625;50.122;19.864;2022-07-22T09:18:20;33.70;94.30
11142;DHT22;5625;50.122;19.864;2022-07-22T09:20:48;33.80;94.00
11142;DHT22;5625;50.122;19.864;2022-07-22T09:23:18;33.90;94.00
11142;DHT22;5625;50.122;19.864;2022-07-22T09:25:49;33.90;94.00
11142;DHT22;5625;50.122;19.864;2022-07-22T09:28:18;33.80;93.90
11142;DHT22;5625;50.122;19.864;2022-07-22T09:30:52;33.70;93.90
11142;DHT22;5625;50.122;19.864;2022-07-22T09:33:22;33.60;94.00
11142;DHT22;5625;50.122;19.864;2022-07-22T09:35:51;33.80;94.00
11142;DHT22;5625;50.122;19.864;2022-07-22T09:38:28;34.10;93.80
11142;DHT22;5625;50.122;19.864;2022-07-22T09:40:58;34.40;93.70
11142;DHT22;5625;50.122;19.864;2022-07-22T09:43:27;34.70;93.40
11142;DHT22;5625;50.122;19.864;2022-07-22T09:46:02;34.80;93.00
11142;DHT22;5625;50.122;19.864;2022-07-22T09:48:31;34.70;92.80
11142;DHT22;5625;50.122;19.864;2022-07-22T09:51:00;34.60;92.90
11142;DHT22;5625;50.122;19.864;2022-07-22T09:53:29;34.70;92.90
11142;DHT22;5625;50.122;19.864;2022-07-22T09:55:57;34.70;92.80
11142;DHT22;5625;50.122;19.864;2022-07-22T09:58:26;34.70;92.60
11142;DHT22;5625;50.122;19.864;2022-07-22T10:00:58;34.80;92.60
11142;DHT22;5625;50.122;19.864;2022-07-22T10:03:29;35.00;92.30
11142;DHT22;5625;50.122;19.864;2022-07-22T10:05:59;35.00;92.10
11142;DHT22;5625;50.122;19.864;2022-07-22T10:08:28;35.10;92.30
11142;DHT22;5625;50.122;19.864;2022-07-22T10:11:00;35.00;92.30
11142;DHT22;5625;50.122;19.864;2022-07-22T10:13:29;35.00;92.30
11142;DHT22;5625;50.122;19.864;2022-07-22T10:15:58;35.30;92.10
11142;DHT22;5625;50.122;19.864;2022-07-22T10:18:30;35.50;91.90
11142;DHT22;5625;50.122;19.864;2022-07-22T10:21:03;35.70;91.90
11142;DHT22;5625;50.122;19.864;2022-07-22T10:23:32;35.70;91.60
11142;DHT22;5625;50.122;19.864;2022-07-22T10:26:03;35.90;91.30
11142;DHT22;5625;50.122;19.864;2022-07-22T10:28:33;36.10;90.90
11142;DHT22;5625;50.122;19.864;2022-07-22T10:31:18;36.10;90.60
11142;DHT22;5625;50.122;19.864;2022-07-22T10:33:51;36.30;90.20
11142;DHT22;5625;50.122;19.864;2022-07-22T10:36:31;36.30;90.20
11142;DHT22;5625;50.122;19.864;2022-07-22T10:39:05;36.30;89.90
11142;DHT22;5625;50.122;19.864;2022-07-22T10:41:35;36.20;90.00
11142;DHT22;5625;50.122;19.864;2022-07-22T10:44:04;36.20;90.00
11142;DHT22;5625;50.122;19.864;2022-07-22T10:46:57;36.20;89.80
11142;DHT22;5625;50.122;19.864;2022-07-22T10:49:30;36.40;90.00
11142;DHT22;5625;50.122;19.864;2022-07-22T10:52:16;36.50;90.10
11142;DHT22;5625;50.122;19.864;2022-07-22T10:55:17;36.50;90.00
11142;DHT22;5625;50.122;19.864;2022-07-22T10:57:46;36.60;89.50
11142;DHT22;5625;50.122;19.864;2022-07-22T11:00:15;36.80;89.60
11142;DHT22;5625;50.122;19.864;2022-07-22T11:02:43;37.10;88.80
11142;DHT22;5625;50.122;19.864;2022-07-22T11:05:14;37.10;88.50
11142;DHT22;5625;50.122;19.864;2022-07-22T11:07:43;37.00;87.60
11142;DHT22;5625;50.122;19.864;2022-07-22T11:10:12;37.00;87.20
11142;DHT22;5625;50.122;19.864;2022-07-22T11:12:48;37.00;87.00
11142;DHT22;5625;50.122;19.864;2022-07-22T11:15:17;36.90;87.20
11142;DHT22;5625;50.122;19.864;2022-07-22T11:17:45;36.70;87.00
11142;DHT22;5625;50.122;19.864;2022-07-22T11:20:15;36.60;87.20
11142;DHT22;5625;50.122;19.864;2022-07-22T11:22:46;36.50;87.00
11142;DHT22;5625;50.122;19.864;2022-07-22T11:25:16;36.50;86.70
11142;DHT22;5625;50.122;19.864;2022-07-22T11:27:50;36.50;87.00
11142;DHT22;5625;50.122;19.864;2022-07-22T11:30:18;36.60;87.10
11142;DHT22;5625;50.122;19.864;2022-07-22T11:32:49;36.60;87.00
11142;DHT22;5625;50.122;19.864;2022-07-22T11:35:19;36.70;86.70
11142;DHT22;5625;50.122;19.864;2022-07-22T11:37:55;36.80;86.00
11142;DHT22;5625;50.122;19.864;2022-07-22T11:40:23;36.80;85.70
11142;DHT22;5625;50.122;19.864;2022-07-22T11:43:02;36.70;85.80
11142;DHT22;5625;50.122;19.864;2022-07-22T11:45:30;36.80;85.60
11142;DHT22;5625;50.122;19.864;2022-07-22T11:47:58;36.90;86.20
11142;DHT22;5625;50.122;19.864;2022-07-22T11:50:36;37.00;86.20
11142;DHT22;5625;50.122;19.864;2022-07-22T11:53:04;37.00;85.20
11142;DHT22;5625;50.122;19.864;2022-07-22T11:55:34;36.90;85.40
11142;DHT22;5625;50.122;19.864;2022-07-22T11:58:02;36.90;85.20
11142;DHT22;5625;50.122;19.864;2022-07-22T12:00:31;37.00;85.40
11142;DHT22;5625;50.122;19.864;2022-07-22T12:02:59;37.10;85.60
11142;DHT22;5625;50.122;19.864;2022-07-22T12:05:27;37.30;85.20
11142;DHT22;5625;50.122;19.864;2022-07-22T12:07:59;37.40;84.50
11142;DHT22;5625;50.122;19.864;2022-07-22T12:10:28;37.50;83.90
11142;DHT22;5625;50.122;19.864;2022-07-22T12:12:56;37.60;83.20
11142;DHT22;5625;50.122;19.864;2022-07-22T12:15:25;37.60;83.50
11142;DHT22;5625;50.122;19.864;2022-07-22T12:18:17;37.70;83.60
11142;DHT22;5625;50.122;19.864;2022-07-22T12:20:47;37.80;83.30
11142;DHT22;5625;50.122;19.864;2022-07-22T12:23:22;37.80;82.20
11142;DHT22;5625;50.122;19.864;2022-07-22T12:25:54;37.90;82.50
11142;DHT22;5625;50.122;19.864;2022-07-22T12:28:22;38.00;82.90
11142;DHT22;5625;50.122;19.864;2022-07-22T12:30:52;37.90;81.80
11142;DHT22;5625;50.122;19.864;2022-07-22T12:33:22;37.80;80.40
11142;DHT22;5625;50.122;19.864;2022-07-22T12:36:01;37.80;79.50
11142;DHT22;5625;50.122;19.864;2022-07-22T12:38:31;37.70;79.60
11142;DHT22;5625;50.122;19.864;2022-07-22T12:41:20;37.60;79.60
11142;DHT22;5625;50.122;19.864;2022-07-22T12:43:50;37.50;79.40
11142;DHT22;5625;50.122;19.864;2022-07-22T12:46:18;37.60;79.70
11142;DHT22;5625;50.122;19.864;2022-07-22T12:48:54;37.70;78.70
11142;DHT22;5625;50.122;19.864;2022-07-22T12:51:27;37.70;78.30
11142;DHT22;5625;50.122;19.864;2022-07-22T12:53:56;37.70;78.00
11142;DHT22;5625;50.122;19.864;2022-07-22T12:56:29;37.80;78.20
11142;DHT22;5625;50.122;19.864;2022-07-22T12:59:02;37.70;78.30
11142;DHT22;5625;50.122;19.864;2022-07-22T13:01:30;37.80;77.80
11142;DHT22;5625;50.122;19.864;2022-07-22T13:03:59;37.70;77.50
11142;DHT22;5625;50.122;19.864;2022-07-22T13:06:27;37.70;77.70
11142;DHT22;5625;50.122;19.864;2022-07-22T13:08:56;37.60;77.70
11142;DHT22;5625;50.122;19.864;2022-07-22T13:11:25;37.60;78.30
11142;DHT22;5625;50.122;19.864;2022-07-22T13:13:53;37.50;78.30
11142;DHT22;5625;50.122;19.864;2022-07-22T13:16:21;37.50;77.90
11142;DHT22;5625;50.122;19.864;2022-07-22T13:18:51;37.40;78.10
11142;DHT22;5625;50.122;19.864;2022-07-22T13:21:19;37.40;77.20
11142;DHT22;5625;50.122;19.864;2022-07-22T13:23:47;37.30;77.60
11142;DHT22;5625;50.122;19.864;2022-07-22T13:26:16;37.30;77.60
11142;DHT22;5625;50.122;19.864;2022-07-22T13:28:44;37.30;77.80
11142;DHT22;5625;50.122;19.864;2022-07-22T13:31:15;37.20;77.70
11142;DHT22;5625;50.122;19.864;2022-07-22T13:33:43;37.30;77.40
11142;DHT22;5625;50.122;19.864;2022-07-22T13:36:12;37.30;77.60
11142;DHT22;5625;50.122;19.864;2022-07-22T13:38:40;37.30;77.70
11142;DHT22;5625;50.122;19.864;2022-07-22T13:41:08;37.20;78.30
11142;DHT22;5625;50.122;19.864;2022-07-22T13:43:45;37.20;78.30
11142;DHT22;5625;50.122;19.864;2022-07-22T13:46:13;37.20;78.60
11142;DHT22;5625;50.122;19.864;2022-07-22T13:48:41;37.10;77.50
11142;DHT22;5625;50.122;19.864;2022-07-22T13:51:09;37.10;77.30
11142;DHT22;5625;50.122;19.864;2022-07-22T13:53:38;37.10;77.40
11142;DHT22;5625;50.122;19.864;2022-07-22T13:56:08;37.10;76.90
11142;DHT22;5625;50.122;19.864;2022-07-22T13:58:38;37.10;76.90
11142;DHT22;5625;50.122;19.864;2022-07-22T14:01:09;37.00;76.20
11142;DHT22;5625;50.122;19.864;2022-07-22T14:03:38;37.10;77.70
11142;DHT22;5625;50.122;19.864;2022-07-22T14:06:06;37.00;77.20
11142;DHT22;5625;50.122;19.864;2022-07-22T14:08:36;37.00;77.60
11142;DHT22;5625;50.122;19.864;2022-07-22T14:11:06;36.90;77.90
11142;DHT22;5625;50.122;19.864;2022-07-22T14:13:34;36.90;77.80
11142;DHT22;5625;50.122;19.864;2022-07-22T14:16:07;36.90;78.30
11142;DHT22;5625;50.122;19.864;2022-07-22T14:19:15;36.80;78.50
11142;DHT22;5625;50.122;19.864;2022-07-22T14:21:45;36.80;78.70
11142;DHT22;5625;50.122;19.864;2022-07-22T14:24:13;36.80;78.40
11142;DHT22;5625;50.122;19.864;2022-07-22T14:26:41;36.80;79.20
11142;DHT22;5625;50.122;19.864;2022-07-22T14:29:09;36.80;78.70
11142;DHT22;5625;50.122;19.864;2022-07-22T14:31:39;36.80;78.00
11142;DHT22;5625;50.122;19.864;2022-07-22T14:34:07;36.70;78.00
11142;DHT22;5625;50.122;19.864;2022-07-22T14:36:35;36.80;77.80
11142;DHT22;5625;50.122;19.864;2022-07-22T14:39:03;36.70;78.40
11142;DHT22;5625;50.122;19.864;2022-07-22T14:41:32;36.70;78.40
11142;DHT22;5625;50.122;19.864;2022-07-22T14:44:00;36.70;79.10
11142;DHT22;5625;50.122;19.864;2022-07-22T14:46:28;36.70;77.20
11142;DHT22;5625;50.122;19.864;2022-07-22T14:48:58;36.70;77.60
11142;DHT22;5625;50.122;19.864;2022-07-22T14:51:26;36.70;77.70
11142;DHT22;5625;50.122;19.864;2022-07-22T14:53:54;36.50;77.00
11142;DHT22;5625;50.122;19.864;2022-07-22T14:56:23;36.50;76.50
11142;DHT22;5625;50.122;19.864;2022-07-22T14:58:51;36.50;76.90
11142;DHT22;5625;50.122;19.864;2022-07-22T15:01:19;36.50;77.40
11142;DHT22;5625;50.122;19.864;2022-07-22T15:03:53;36.50;77.30
11142;DHT22;5625;50.122;19.864;2022-07-22T15:06:23;36.50;77.20
11142;DHT22;5625;50.122;19.864;2022-07-22T15:08:51;36.50;76.60
11142;DHT22;5625;50.122;19.864;2022-07-22T15:11:19;36.40;76.90
11142;DHT22;5625;50.122;19.864;2022-07-22T15:13:48;36.30;76.40
11142;DHT22;5625;50.122;19.864;2022-07-22T15:16:16;36.30;76.40
11142;DHT22;5625;50.122;19.864;2022-07-22T15:18:44;36.30;76.20
11142;DHT22;5625;50.122;19.864;2022-07-22T15:21:15;36.30;76.20
11142;DHT22;5625;50.122;19.864;2022-07-22T15:23:45;36.20;77.20
11142;DHT22;5625;50.122;19.864;2022-07-22T15:26:14;36.20;77.20
11142;DHT22;5625;50.122;19.864;2022-07-22T15:28:42;36.10;77.30
11142;DHT22;5625;50.122;19.864;2022-07-22T15:31:12;36.10;78.00
11142;DHT22;5625;50.122;19.864;2022-07-22T15:33:40;36.10;77.60
11142;DHT22;5625;50.122;19.864;2022-07-22T15:36:09;36.00;78.00
11142;DHT22;5625;50.122;19.864;2022-07-22T15:38:38;36.00;78.40
11142;DHT22;5625;50.122;19.864;2022-07-22T15:41:08;36.00;78.30
11142;DHT22;5625;50.122;19.864;2022-07-22T15:43:38;36.00;78.30
11142;DHT22;5625;50.122;19.864;2022-07-22T15:46:07;36.00;78.00